サントメ の空港の天気 - METARとTAF

サントメ国際空港 ( FPST / TMS ) - サントメ・プリンシペ サントメ
飛行場実況気象(Metar)
観測時間01/18 21:00 WAT (01/18 21:00 UTC)
風向・風速西 2m/s
視程10km以上
天気現象
少しの雲 雲底高度 610m
気温26℃
湿度94%
気圧1012hPa
METARFPST 182100Z 26004KT 9999 FEW020CB 26/25 Q1012 NOSIG
過去の天気等 Google飛行場航空写真 Wunderground天気予報

過去48時間のMETAR

飛行場予報(TAF)
発表時間: 1/18 16:00 WAT (1/18 16:00 UTC)
予報対象時間: 18日18時 WAT ~ 19日18時 WAT
風向・風速東 2m/s
視程10km以上
少しの積乱雲 雲底高度 610m
全天の4割程度の雲 雲底高度 1,220m
19日2時 WAT ~ 19日6時 WAT に徐々に
全天の8割程度の雲 雲底高度 1,220m
TAF FPST 181600Z 1818/1918 09004KT 9999 FEW020CB SCT040
BECMG 1902/1906 BKN040